sensor_id;sensor_type;location;lat;lon;timestamp;temperature;humidity
13970;DHT22;7057;49.984;8.404;2023-04-24T00:00:54;11.50;99.90
13970;DHT22;7057;49.984;8.404;2023-04-24T00:03:24;11.50;99.90
13970;DHT22;7057;49.984;8.404;2023-04-24T00:05:51;11.50;99.90
13970;DHT22;7057;49.984;8.404;2023-04-24T00:08:18;11.50;99.90
13970;DHT22;7057;49.984;8.404;2023-04-24T00:10:46;11.50;99.90
13970;DHT22;7057;49.984;8.404;2023-04-24T00:13:13;11.50;99.90
13970;DHT22;7057;49.984;8.404;2023-04-24T00:15:40;11.50;99.90
13970;DHT22;7057;49.984;8.404;2023-04-24T00:18:07;11.60;99.90
13970;DHT22;7057;49.984;8.404;2023-04-24T00:20:35;11.60;99.90
13970;DHT22;7057;49.984;8.404;2023-04-24T00:23:03;11.60;99.90
13970;DHT22;7057;49.984;8.404;2023-04-24T00:25:30;11.60;99.90
13970;DHT22;7057;49.984;8.404;2023-04-24T00:27:57;11.60;99.90
13970;DHT22;7057;49.984;8.404;2023-04-24T00:30:24;11.60;99.90
13970;DHT22;7057;49.984;8.404;2023-04-24T00:32:52;11.60;99.90
13970;DHT22;7057;49.984;8.404;2023-04-24T00:35:19;11.60;99.90
13970;DHT22;7057;49.984;8.404;2023-04-24T00:37:48;11.60;99.90
13970;DHT22;7057;49.984;8.404;2023-04-24T00:40:16;11.50;99.90
13970;DHT22;7057;49.984;8.404;2023-04-24T00:42:44;11.50;99.90
13970;DHT22;7057;49.984;8.404;2023-04-24T00:45:12;11.40;99.90
13970;DHT22;7057;49.984;8.404;2023-04-24T00:47:39;11.30;99.90
13970;DHT22;7057;49.984;8.404;2023-04-24T00:50:08;11.30;99.90
13970;DHT22;7057;49.984;8.404;2023-04-24T00:52:37;11.10;99.90
13970;DHT22;7057;49.984;8.404;2023-04-24T00:55:08;11.00;99.90
13970;DHT22;7057;49.984;8.404;2023-04-24T00:57:36;11.00;99.90
13970;DHT22;7057;49.984;8.404;2023-04-24T01:00:05;10.90;99.90
13970;DHT22;7057;49.984;8.404;2023-04-24T01:02:37;10.90;99.90
13970;DHT22;7057;49.984;8.404;2023-04-24T01:05:06;10.90;99.90
13970;DHT22;7057;49.984;8.404;2023-04-24T01:07:34;10.80;99.90
13970;DHT22;7057;49.984;8.404;2023-04-24T01:10:02;10.80;99.90
13970;DHT22;7057;49.984;8.404;2023-04-24T01:12:32;10.90;99.90
13970;DHT22;7057;49.984;8.404;2023-04-24T01:14:59;10.80;99.90
13970;DHT22;7057;49.984;8.404;2023-04-24T01:17:26;10.80;99.90
13970;DHT22;7057;49.984;8.404;2023-04-24T01:19:53;10.90;99.90
13970;DHT22;7057;49.984;8.404;2023-04-24T01:22:23;10.90;99.90
13970;DHT22;7057;49.984;8.404;2023-04-24T01:24:51;10.90;99.90
13970;DHT22;7057;49.984;8.404;2023-04-24T01:27:19;10.90;99.90
13970;DHT22;7057;49.984;8.404;2023-04-24T01:29:47;10.90;99.90
13970;DHT22;7057;49.984;8.404;2023-04-24T01:32:15;10.90;99.90
13970;DHT22;7057;49.984;8.404;2023-04-24T01:34:44;10.90;99.90
13970;DHT22;7057;49.984;8.404;2023-04-24T01:37:12;10.90;99.90
13970;DHT22;7057;49.984;8.404;2023-04-24T01:39:40;11.00;99.90
13970;DHT22;7057;49.984;8.404;2023-04-24T01:42:07;11.00;99.90
13970;DHT22;7057;49.984;8.404;2023-04-24T01:44:34;11.10;99.90
13970;DHT22;7057;49.984;8.404;2023-04-24T01:47:02;11.20;99.90
13970;DHT22;7057;49.984;8.404;2023-04-24T01:49:29;11.20;99.90
13970;DHT22;7057;49.984;8.404;2023-04-24T01:51:56;11.20;99.90
13970;DHT22;7057;49.984;8.404;2023-04-24T01:54:23;11.20;99.90
13970;DHT22;7057;49.984;8.404;2023-04-24T01:56:52;11.20;99.90
13970;DHT22;7057;49.984;8.404;2023-04-24T01:59:20;11.10;99.90
13970;DHT22;7057;49.984;8.404;2023-04-24T02:01:48;11.20;99.90
13970;DHT22;7057;49.984;8.404;2023-04-24T02:04:15;11.20;99.90
13970;DHT22;7057;49.984;8.404;2023-04-24T02:06:42;11.20;99.90
13970;DHT22;7057;49.984;8.404;2023-04-24T02:09:09;11.20;99.90
13970;DHT22;7057;49.984;8.404;2023-04-24T02:11:37;11.20;99.90
13970;DHT22;7057;49.984;8.404;2023-04-24T02:14:05;11.30;99.90
13970;DHT22;7057;49.984;8.404;2023-04-24T02:16:32;11.30;99.90
13970;DHT22;7057;49.984;8.404;2023-04-24T02:19:01;11.30;99.90
13970;DHT22;7057;49.984;8.404;2023-04-24T02:21:28;11.30;99.90
13970;DHT22;7057;49.984;8.404;2023-04-24T02:23:56;11.20;99.90
13970;DHT22;7057;49.984;8.404;2023-04-24T02:26:23;11.30;99.90
13970;DHT22;7057;49.984;8.404;2023-04-24T02:28:50;11.30;99.90
13970;DHT22;7057;49.984;8.404;2023-04-24T02:31:19;11.40;99.90
13970;DHT22;7057;49.984;8.404;2023-04-24T02:33:46;11.30;99.90
13970;DHT22;7057;49.984;8.404;2023-04-24T02:36:13;11.30;99.90
13970;DHT22;7057;49.984;8.404;2023-04-24T02:38:40;11.30;99.90
13970;DHT22;7057;49.984;8.404;2023-04-24T02:41:07;11.40;99.90
13970;DHT22;7057;49.984;8.404;2023-04-24T02:43:34;11.30;99.90
13970;DHT22;7057;49.984;8.404;2023-04-24T02:46:01;11.50;99.90
13970;DHT22;7057;49.984;8.404;2023-04-24T02:48:30;11.50;99.90
13970;DHT22;7057;49.984;8.404;2023-04-24T02:50:57;11.50;99.90
13970;DHT22;7057;49.984;8.404;2023-04-24T02:53:24;11.40;99.90
13970;DHT22;7057;49.984;8.404;2023-04-24T02:55:51;11.50;99.90
13970;DHT22;7057;49.984;8.404;2023-04-24T02:58:18;11.60;99.90
13970;DHT22;7057;49.984;8.404;2023-04-24T03:00:46;11.60;99.90
13970;DHT22;7057;49.984;8.404;2023-04-24T03:03:13;11.60;99.90
13970;DHT22;7057;49.984;8.404;2023-04-24T03:05:42;11.70;99.90
13970;DHT22;7057;49.984;8.404;2023-04-24T03:08:09;11.70;99.90
13970;DHT22;7057;49.984;8.404;2023-04-24T03:10:37;11.70;99.90
13970;DHT22;7057;49.984;8.404;2023-04-24T03:13:04;11.70;99.90
13970;DHT22;7057;49.984;8.404;2023-04-24T03:15:31;11.70;99.90
13970;DHT22;7057;49.984;8.404;2023-04-24T03:17:58;11.80;99.90
13970;DHT22;7057;49.984;8.404;2023-04-24T03:20:26;11.80;99.90
13970;DHT22;7057;49.984;8.404;2023-04-24T03:22:54;11.70;99.90
13970;DHT22;7057;49.984;8.404;2023-04-24T03:25:22;11.80;99.90
13970;DHT22;7057;49.984;8.404;2023-04-24T03:27:50;11.70;99.90
13970;DHT22;7057;49.984;8.404;2023-04-24T03:30:17;11.80;99.90
13970;DHT22;7057;49.984;8.404;2023-04-24T03:32:44;11.70;99.90
13970;DHT22;7057;49.984;8.404;2023-04-24T03:35:11;11.80;99.90
13970;DHT22;7057;49.984;8.404;2023-04-24T03:37:38;11.80;99.90
13970;DHT22;7057;49.984;8.404;2023-04-24T03:40:08;11.80;99.90
13970;DHT22;7057;49.984;8.404;2023-04-24T03:42:35;11.80;99.90
13970;DHT22;7057;49.984;8.404;2023-04-24T03:45:03;11.80;99.90
13970;DHT22;7057;49.984;8.404;2023-04-24T03:47:30;11.80;99.90
13970;DHT22;7057;49.984;8.404;2023-04-24T03:49:57;11.90;99.90
13970;DHT22;7057;49.984;8.404;2023-04-24T03:52:25;11.90;99.90
13970;DHT22;7057;49.984;8.404;2023-04-24T03:54:52;11.90;99.90
13970;DHT22;7057;49.984;8.404;2023-04-24T03:57:20;11.80;99.90
13970;DHT22;7057;49.984;8.404;2023-04-24T03:59:47;11.70;99.90
13970;DHT22;7057;49.984;8.404;2023-04-24T04:02:14;11.70;99.90
13970;DHT22;7057;49.984;8.404;2023-04-24T04:04:41;11.70;99.90
13970;DHT22;7057;49.984;8.404;2023-04-24T04:07:09;11.80;99.90
13970;DHT22;7057;49.984;8.404;2023-04-24T04:09:37;11.80;99.90
13970;DHT22;7057;49.984;8.404;2023-04-24T04:12:04;11.70;99.90
13970;DHT22;7057;49.984;8.404;2023-04-24T04:14:32;11.70;99.90
13970;DHT22;7057;49.984;8.404;2023-04-24T04:16:59;11.60;99.90
13970;DHT22;7057;49.984;8.404;2023-04-24T04:19:26;11.50;99.90
13970;DHT22;7057;49.984;8.404;2023-04-24T04:21:54;11.50;99.90
13970;DHT22;7057;49.984;8.404;2023-04-24T04:24:22;11.30;99.90
13970;DHT22;7057;49.984;8.404;2023-04-24T04:26:49;11.30;99.90
13970;DHT22;7057;49.984;8.404;2023-04-24T04:29:18;11.10;99.90
13970;DHT22;7057;49.984;8.404;2023-04-24T04:31:46;11.10;99.90
13970;DHT22;7057;49.984;8.404;2023-04-24T04:34:13;10.90;99.90
13970;DHT22;7057;49.984;8.404;2023-04-24T04:36:41;10.90;99.90
13970;DHT22;7057;49.984;8.404;2023-04-24T04:39:09;10.70;99.90
13970;DHT22;7057;49.984;8.404;2023-04-24T04:41:36;10.70;99.90
13970;DHT22;7057;49.984;8.404;2023-04-24T04:44:06;10.70;99.90
13970;DHT22;7057;49.984;8.404;2023-04-24T04:46:34;10.70;99.90
13970;DHT22;7057;49.984;8.404;2023-04-24T04:49:04;10.60;99.90
13970;DHT22;7057;49.984;8.404;2023-04-24T04:51:31;10.60;99.90
13970;DHT22;7057;49.984;8.404;2023-04-24T04:53:58;10.50;99.90
13970;DHT22;7057;49.984;8.404;2023-04-24T04:56:26;10.50;99.90
13970;DHT22;7057;49.984;8.404;2023-04-24T04:58:53;10.50;99.90
13970;DHT22;7057;49.984;8.404;2023-04-24T05:01:20;10.40;99.90
13970;DHT22;7057;49.984;8.404;2023-04-24T05:03:48;10.40;99.90
13970;DHT22;7057;49.984;8.404;2023-04-24T05:06:17;10.50;99.90
13970;DHT22;7057;49.984;8.404;2023-04-24T05:08:44;10.50;99.90
13970;DHT22;7057;49.984;8.404;2023-04-24T05:11:11;10.50;99.90
13970;DHT22;7057;49.984;8.404;2023-04-24T05:13:38;10.50;99.90
13970;DHT22;7057;49.984;8.404;2023-04-24T05:16:06;10.50;99.90
13970;DHT22;7057;49.984;8.404;2023-04-24T05:18:33;10.50;99.90
13970;DHT22;7057;49.984;8.404;2023-04-24T05:21:00;10.50;99.90
13970;DHT22;7057;49.984;8.404;2023-04-24T05:23:28;10.40;99.90
13970;DHT22;7057;49.984;8.404;2023-04-24T05:25:56;10.30;99.90
13970;DHT22;7057;49.984;8.404;2023-04-24T05:28:23;10.30;99.90
13970;DHT22;7057;49.984;8.404;2023-04-24T05:30:54;10.30;99.90
13970;DHT22;7057;49.984;8.404;2023-04-24T05:33:21;10.30;99.90
13970;DHT22;7057;49.984;8.404;2023-04-24T05:35:48;10.30;99.90
13970;DHT22;7057;49.984;8.404;2023-04-24T05:38:16;10.20;99.90
13970;DHT22;7057;49.984;8.404;2023-04-24T05:40:45;10.20;99.90
13970;DHT22;7057;49.984;8.404;2023-04-24T05:43:12;10.30;99.90
13970;DHT22;7057;49.984;8.404;2023-04-24T05:45:39;10.30;99.90
13970;DHT22;7057;49.984;8.404;2023-04-24T05:48:06;10.40;99.90
13970;DHT22;7057;49.984;8.404;2023-04-24T05:50:33;10.40;99.90
13970;DHT22;7057;49.984;8.404;2023-04-24T05:53:00;10.50;99.90
13970;DHT22;7057;49.984;8.404;2023-04-24T05:55:28;10.50;99.90
13970;DHT22;7057;49.984;8.404;2023-04-24T05:57:57;10.50;99.90
13970;DHT22;7057;49.984;8.404;2023-04-24T06:00:24;10.50;99.90
13970;DHT22;7057;49.984;8.404;2023-04-24T06:02:51;10.40;99.90
13970;DHT22;7057;49.984;8.404;2023-04-24T06:05:20;10.40;99.90
13970;DHT22;7057;49.984;8.404;2023-04-24T06:07:47;10.40;99.90
13970;DHT22;7057;49.984;8.404;2023-04-24T06:10:14;10.40;99.90
13970;DHT22;7057;49.984;8.404;2023-04-24T06:12:42;10.30;99.90
13970;DHT22;7057;49.984;8.404;2023-04-24T06:15:11;10.40;99.90
13970;DHT22;7057;49.984;8.404;2023-04-24T06:17:38;10.40;99.90
13970;DHT22;7057;49.984;8.404;2023-04-24T06:20:06;10.60;99.90
13970;DHT22;7057;49.984;8.404;2023-04-24T06:22:34;10.80;99.90
13970;DHT22;7057;49.984;8.404;2023-04-24T06:25:01;10.90;99.90
13970;DHT22;7057;49.984;8.404;2023-04-24T06:27:28;10.90;99.90
13970;DHT22;7057;49.984;8.404;2023-04-24T06:29:55;11.10;99.90
13970;DHT22;7057;49.984;8.404;2023-04-24T06:32:24;11.20;99.90
13970;DHT22;7057;49.984;8.404;2023-04-24T06:34:51;11.10;99.90
13970;DHT22;7057;49.984;8.404;2023-04-24T06:37:19;11.20;99.90
13970;DHT22;7057;49.984;8.404;2023-04-24T06:39:47;11.20;99.90
13970;DHT22;7057;49.984;8.404;2023-04-24T06:42:14;11.20;99.90
13970;DHT22;7057;49.984;8.404;2023-04-24T06:44:41;11.30;99.90
13970;DHT22;7057;49.984;8.404;2023-04-24T06:47:08;11.30;99.90
13970;DHT22;7057;49.984;8.404;2023-04-24T06:49:37;11.40;99.90
13970;DHT22;7057;49.984;8.404;2023-04-24T06:52:05;11.40;99.90
13970;DHT22;7057;49.984;8.404;2023-04-24T06:54:32;11.50;99.90
13970;DHT22;7057;49.984;8.404;2023-04-24T06:56:59;11.50;99.90
13970;DHT22;7057;49.984;8.404;2023-04-24T06:59:28;11.40;99.90
13970;DHT22;7057;49.984;8.404;2023-04-24T07:01:55;11.50;99.90
13970;DHT22;7057;49.984;8.404;2023-04-24T07:04:22;11.60;99.90
13970;DHT22;7057;49.984;8.404;2023-04-24T07:06:52;11.70;99.90
13970;DHT22;7057;49.984;8.404;2023-04-24T07:09:21;11.90;99.90
13970;DHT22;7057;49.984;8.404;2023-04-24T07:11:49;12.10;99.90
13970;DHT22;7057;49.984;8.404;2023-04-24T07:14:17;12.30;99.90
13970;DHT22;7057;49.984;8.404;2023-04-24T07:16:44;12.60;99.90
13970;DHT22;7057;49.984;8.404;2023-04-24T07:19:12;12.80;99.90
13970;DHT22;7057;49.984;8.404;2023-04-24T07:21:39;13.00;99.90
13970;DHT22;7057;49.984;8.404;2023-04-24T07:24:08;13.10;99.90
13970;DHT22;7057;49.984;8.404;2023-04-24T07:26:37;13.10;99.90
13970;DHT22;7057;49.984;8.404;2023-04-24T07:29:05;13.10;99.90
13970;DHT22;7057;49.984;8.404;2023-04-24T07:31:32;13.00;99.90
13970;DHT22;7057;49.984;8.404;2023-04-24T07:33:59;13.00;99.90
13970;DHT22;7057;49.984;8.404;2023-04-24T07:36:26;13.00;99.90
13970;DHT22;7057;49.984;8.404;2023-04-24T07:38:54;13.00;99.90
13970;DHT22;7057;49.984;8.404;2023-04-24T07:41:23;13.00;99.90
13970;DHT22;7057;49.984;8.404;2023-04-24T07:43:51;13.00;99.90
13970;DHT22;7057;49.984;8.404;2023-04-24T07:46:18;13.10;99.90
13970;DHT22;7057;49.984;8.404;2023-04-24T07:48:45;13.30;99.90
13970;DHT22;7057;49.984;8.404;2023-04-24T07:51:14;13.30;99.90
13970;DHT22;7057;49.984;8.404;2023-04-24T07:53:42;13.40;99.90
13970;DHT22;7057;49.984;8.404;2023-04-24T07:56:09;13.40;99.90
13970;DHT22;7057;49.984;8.404;2023-04-24T07:58:38;13.50;99.90
13970;DHT22;7057;49.984;8.404;2023-04-24T08:01:05;13.40;99.90
13970;DHT22;7057;49.984;8.404;2023-04-24T08:03:32;13.30;99.90
13970;DHT22;7057;49.984;8.404;2023-04-24T08:05:59;13.20;99.90
13970;DHT22;7057;49.984;8.404;2023-04-24T08:08:26;13.20;99.90
13970;DHT22;7057;49.984;8.404;2023-04-24T08:10:53;13.30;99.90
13970;DHT22;7057;49.984;8.404;2023-04-24T08:13:20;13.30;99.90
13970;DHT22;7057;49.984;8.404;2023-04-24T08:15:49;13.40;99.90
13970;DHT22;7057;49.984;8.404;2023-04-24T08:18:16;13.60;99.90
13970;DHT22;7057;49.984;8.404;2023-04-24T08:20:43;13.80;99.90
13970;DHT22;7057;49.984;8.404;2023-04-24T08:23:11;14.00;99.90
13970;DHT22;7057;49.984;8.404;2023-04-24T08:25:38;14.30;99.90
13970;DHT22;7057;49.984;8.404;2023-04-24T08:28:06;14.50;99.90
13970;DHT22;7057;49.984;8.404;2023-04-24T08:30:35;14.50;99.90
13970;DHT22;7057;49.984;8.404;2023-04-24T08:33:04;14.60;99.90
13970;DHT22;7057;49.984;8.404;2023-04-24T08:35:31;14.60;99.90
13970;DHT22;7057;49.984;8.404;2023-04-24T08:37:58;14.50;99.90
13970;DHT22;7057;49.984;8.404;2023-04-24T08:40:28;14.40;99.90
13970;DHT22;7057;49.984;8.404;2023-04-24T08:42:55;14.30;99.90
13970;DHT22;7057;49.984;8.404;2023-04-24T08:45:23;13.80;99.90
13970;DHT22;7057;49.984;8.404;2023-04-24T08:47:52;13.60;99.90
13970;DHT22;7057;49.984;8.404;2023-04-24T08:50:22;13.40;99.90
13970;DHT22;7057;49.984;8.404;2023-04-24T08:52:50;13.20;99.90
13970;DHT22;7057;49.984;8.404;2023-04-24T08:55:19;13.00;99.90
13970;DHT22;7057;49.984;8.404;2023-04-24T08:57:51;12.90;99.90
13970;DHT22;7057;49.984;8.404;2023-04-24T09:00:19;12.80;99.90
13970;DHT22;7057;49.984;8.404;2023-04-24T09:02:49;12.80;99.90
13970;DHT22;7057;49.984;8.404;2023-04-24T09:05:16;13.10;99.90
13970;DHT22;7057;49.984;8.404;2023-04-24T09:07:49;13.40;99.90
13970;DHT22;7057;49.984;8.404;2023-04-24T09:10:20;13.50;99.90
13970;DHT22;7057;49.984;8.404;2023-04-24T09:12:49;13.40;99.90
13970;DHT22;7057;49.984;8.404;2023-04-24T09:15:17;13.50;99.90
13970;DHT22;7057;49.984;8.404;2023-04-24T09:17:44;13.60;99.90
13970;DHT22;7057;49.984;8.404;2023-04-24T09:20:11;13.80;99.90
13970;DHT22;7057;49.984;8.404;2023-04-24T09:22:38;13.80;99.90
13970;DHT22;7057;49.984;8.404;2023-04-24T09:25:08;13.50;99.90
13970;DHT22;7057;49.984;8.404;2023-04-24T09:27:42;13.50;99.90
13970;DHT22;7057;49.984;8.404;2023-04-24T09:30:10;13.40;99.90
13970;DHT22;7057;49.984;8.404;2023-04-24T09:32:38;13.50;99.90
13970;DHT22;7057;49.984;8.404;2023-04-24T09:35:08;13.50;99.90
13970;DHT22;7057;49.984;8.404;2023-04-24T09:37:36;13.60;99.90
13970;DHT22;7057;49.984;8.404;2023-04-24T09:40:14;13.60;99.90
13970;DHT22;7057;49.984;8.404;2023-04-24T09:42:46;13.70;99.90
13970;DHT22;7057;49.984;8.404;2023-04-24T09:45:18;13.70;99.90
13970;DHT22;7057;49.984;8.404;2023-04-24T09:47:45;13.90;99.90
13970;DHT22;7057;49.984;8.404;2023-04-24T09:50:14;14.00;99.90
13970;DHT22;7057;49.984;8.404;2023-04-24T09:52:43;14.10;99.90
13970;DHT22;7057;49.984;8.404;2023-04-24T09:55:16;14.10;99.90
13970;DHT22;7057;49.984;8.404;2023-04-24T09:57:48;14.00;99.90
13970;DHT22;7057;49.984;8.404;2023-04-24T10:00:19;13.80;99.90
13970;DHT22;7057;49.984;8.404;2023-04-24T10:02:50;13.80;99.90
13970;DHT22;7057;49.984;8.404;2023-04-24T10:05:18;13.60;99.90
13970;DHT22;7057;49.984;8.404;2023-04-24T10:07:45;13.50;99.90
13970;DHT22;7057;49.984;8.404;2023-04-24T10:10:13;13.40;99.90
13970;DHT22;7057;49.984;8.404;2023-04-24T10:12:42;13.20;99.90
13970;DHT22;7057;49.984;8.404;2023-04-24T10:15:10;12.90;99.90
13970;DHT22;7057;49.984;8.404;2023-04-24T10:17:40;12.80;99.90
13970;DHT22;7057;49.984;8.404;2023-04-24T10:20:08;12.80;99.90
13970;DHT22;7057;49.984;8.404;2023-04-24T10:22:36;12.90;99.90
13970;DHT22;7057;49.984;8.404;2023-04-24T10:25:05;13.00;99.90
13970;DHT22;7057;49.984;8.404;2023-04-24T10:27:34;13.20;99.90
13970;DHT22;7057;49.984;8.404;2023-04-24T10:30:03;13.40;99.90
13970;DHT22;7057;49.984;8.404;2023-04-24T10:32:30;13.60;99.90
13970;DHT22;7057;49.984;8.404;2023-04-24T10:34:57;13.70;99.90
13970;DHT22;7057;49.984;8.404;2023-04-24T10:37:26;13.90;99.90
13970;DHT22;7057;49.984;8.404;2023-04-24T10:39:53;13.80;99.90
13970;DHT22;7057;49.984;8.404;2023-04-24T10:42:20;13.50;99.90
13970;DHT22;7057;49.984;8.404;2023-04-24T10:44:50;13.30;99.90
13970;DHT22;7057;49.984;8.404;2023-04-24T10:47:17;13.00;99.90
13970;DHT22;7057;49.984;8.404;2023-04-24T10:49:44;13.00;99.90
13970;DHT22;7057;49.984;8.404;2023-04-24T10:52:11;13.00;99.90
13970;DHT22;7057;49.984;8.404;2023-04-24T10:54:42;13.00;99.90
13970;DHT22;7057;49.984;8.404;2023-04-24T10:57:27;12.90;99.90
13970;DHT22;7057;49.984;8.404;2023-04-24T11:00:19;12.80;99.90
13970;DHT22;7057;49.984;8.404;2023-04-24T11:02:47;12.80;99.90
13970;DHT22;7057;49.984;8.404;2023-04-24T11:05:19;12.90;99.90
13970;DHT22;7057;49.984;8.404;2023-04-24T11:08:09;13.10;99.90
13970;DHT22;7057;49.984;8.404;2023-04-24T11:10:39;13.40;99.90
13970;DHT22;7057;49.984;8.404;2023-04-24T11:13:06;13.70;99.90
13970;DHT22;7057;49.984;8.404;2023-04-24T11:15:35;13.70;99.90
13970;DHT22;7057;49.984;8.404;2023-04-24T11:18:02;13.60;99.90
13970;DHT22;7057;49.984;8.404;2023-04-24T11:20:29;13.30;99.90
13970;DHT22;7057;49.984;8.404;2023-04-24T11:23:03;13.40;99.90
13970;DHT22;7057;49.984;8.404;2023-04-24T11:25:32;13.60;99.90
13970;DHT22;7057;49.984;8.404;2023-04-24T11:28:05;13.60;99.90
13970;DHT22;7057;49.984;8.404;2023-04-24T11:30:34;13.80;99.90
13970;DHT22;7057;49.984;8.404;2023-04-24T11:33:03;13.70;99.90
13970;DHT22;7057;49.984;8.404;2023-04-24T11:35:35;13.50;99.90
13970;DHT22;7057;49.984;8.404;2023-04-24T11:38:03;13.40;99.90
13970;DHT22;7057;49.984;8.404;2023-04-24T11:40:31;13.30;99.90
13970;DHT22;7057;49.984;8.404;2023-04-24T11:43:00;13.20;99.90
13970;DHT22;7057;49.984;8.404;2023-04-24T11:45:28;13.10;99.90
13970;DHT22;7057;49.984;8.404;2023-04-24T11:47:57;13.00;99.90
13970;DHT22;7057;49.984;8.404;2023-04-24T11:50:26;13.10;99.90
13970;DHT22;7057;49.984;8.404;2023-04-24T11:52:54;13.30;99.90
13970;DHT22;7057;49.984;8.404;2023-04-24T11:55:26;13.60;99.90
13970;DHT22;7057;49.984;8.404;2023-04-24T11:57:55;13.90;99.90
13970;DHT22;7057;49.984;8.404;2023-04-24T12:00:24;14.00;99.90
13970;DHT22;7057;49.984;8.404;2023-04-24T12:02:53;14.30;99.90
13970;DHT22;7057;49.984;8.404;2023-04-24T12:05:31;14.50;99.90
13970;DHT22;7057;49.984;8.404;2023-04-24T12:07:58;15.00;99.90
13970;DHT22;7057;49.984;8.404;2023-04-24T12:17:10;14.00;99.90
13970;DHT22;7057;49.984;8.404;2023-04-24T12:19:37;13.30;99.90
13970;DHT22;7057;49.984;8.404;2023-04-24T12:22:06;12.80;99.90
13970;DHT22;7057;49.984;8.404;2023-04-24T12:24:33;12.30;99.90
13970;DHT22;7057;49.984;8.404;2023-04-24T12:27:00;12.20;99.90
13970;DHT22;7057;49.984;8.404;2023-04-24T12:29:28;12.20;99.90
13970;DHT22;7057;49.984;8.404;2023-04-24T12:31:55;12.20;99.90
13970;DHT22;7057;49.984;8.404;2023-04-24T12:34:23;12.30;99.90
13970;DHT22;7057;49.984;8.404;2023-04-24T12:36:51;12.50;99.90
13970;DHT22;7057;49.984;8.404;2023-04-24T12:39:20;12.60;99.90
13970;DHT22;7057;49.984;8.404;2023-04-24T12:41:54;12.90;99.90
13970;DHT22;7057;49.984;8.404;2023-04-24T12:44:29;13.20;99.90
13970;DHT22;7057;49.984;8.404;2023-04-24T12:46:56;13.60;99.90
13970;DHT22;7057;49.984;8.404;2023-04-24T12:49:23;13.90;99.90
13970;DHT22;7057;49.984;8.404;2023-04-24T12:51:50;14.20;99.90
13970;DHT22;7057;49.984;8.404;2023-04-24T12:54:17;14.50;99.90
13970;DHT22;7057;49.984;8.404;2023-04-24T12:56:46;14.90;99.90
13970;DHT22;7057;49.984;8.404;2023-04-24T12:59:13;15.30;99.90
13970;DHT22;7057;49.984;8.404;2023-04-24T13:01:41;15.50;99.90
13970;DHT22;7057;49.984;8.404;2023-04-24T13:04:08;15.70;99.90
13970;DHT22;7057;49.984;8.404;2023-04-24T13:06:35;15.70;99.90
13970;DHT22;7057;49.984;8.404;2023-04-24T13:09:02;15.60;99.90
13970;DHT22;7057;49.984;8.404;2023-04-24T13:11:30;15.30;99.90
13970;DHT22;7057;49.984;8.404;2023-04-24T13:13:58;15.30;99.90
13970;DHT22;7057;49.984;8.404;2023-04-24T13:16:26;15.30;99.90
13970;DHT22;7057;49.984;8.404;2023-04-24T13:18:53;15.50;99.90
13970;DHT22;7057;49.984;8.404;2023-04-24T13:21:20;15.50;99.90
13970;DHT22;7057;49.984;8.404;2023-04-24T13:23:47;15.40;99.90
13970;DHT22;7057;49.984;8.404;2023-04-24T13:26:15;15.30;99.90
13970;DHT22;7057;49.984;8.404;2023-04-24T13:28:42;15.00;99.90
13970;DHT22;7057;49.984;8.404;2023-04-24T13:31:11;14.80;99.90
13970;DHT22;7057;49.984;8.404;2023-04-24T13:33:38;14.50;99.90
13970;DHT22;7057;49.984;8.404;2023-04-24T13:36:06;14.20;99.90
13970;DHT22;7057;49.984;8.404;2023-04-24T13:38:33;13.90;99.90
13970;DHT22;7057;49.984;8.404;2023-04-24T13:41:00;13.60;99.90
13970;DHT22;7057;49.984;8.404;2023-04-24T13:43:28;13.30;99.90
13970;DHT22;7057;49.984;8.404;2023-04-24T13:45:55;13.10;99.90
13970;DHT22;7057;49.984;8.404;2023-04-24T13:48:24;13.20;99.90
13970;DHT22;7057;49.984;8.404;2023-04-24T13:50:51;13.40;99.90
13970;DHT22;7057;49.984;8.404;2023-04-24T13:53:18;13.60;99.90
13970;DHT22;7057;49.984;8.404;2023-04-24T13:55:45;13.90;99.90
13970;DHT22;7057;49.984;8.404;2023-04-24T13:58:12;14.20;99.90
13970;DHT22;7057;49.984;8.404;2023-04-24T14:00:40;14.50;99.90
13970;DHT22;7057;49.984;8.404;2023-04-24T14:03:08;14.70;99.90
13970;DHT22;7057;49.984;8.404;2023-04-24T14:05:36;14.80;99.90
13970;DHT22;7057;49.984;8.404;2023-04-24T14:08:03;14.90;99.90
13970;DHT22;7057;49.984;8.404;2023-04-24T14:10:31;15.10;99.90
13970;DHT22;7057;49.984;8.404;2023-04-24T14:12:58;15.20;99.90
13970;DHT22;7057;49.984;8.404;2023-04-24T14:15:26;14.90;99.90
13970;DHT22;7057;49.984;8.404;2023-04-24T14:17:53;14.80;99.90
13970;DHT22;7057;49.984;8.404;2023-04-24T14:20:20;14.70;99.90
13970;DHT22;7057;49.984;8.404;2023-04-24T14:22:49;14.80;99.90
13970;DHT22;7057;49.984;8.404;2023-04-24T14:25:16;14.80;99.90
13970;DHT22;7057;49.984;8.404;2023-04-24T14:27:43;14.80;99.90
13970;DHT22;7057;49.984;8.404;2023-04-24T14:30:11;14.90;99.90
13970;DHT22;7057;49.984;8.404;2023-04-24T14:32:39;15.10;99.90
13970;DHT22;7057;49.984;8.404;2023-04-24T14:35:07;15.30;99.90
13970;DHT22;7057;49.984;8.404;2023-04-24T14:37:34;15.30;99.90
13970;DHT22;7057;49.984;8.404;2023-04-24T14:40:04;15.30;99.90
13970;DHT22;7057;49.984;8.404;2023-04-24T14:42:31;15.30;99.90
13970;DHT22;7057;49.984;8.404;2023-04-24T14:44:58;15.20;99.90
13970;DHT22;7057;49.984;8.404;2023-04-24T14:47:26;15.30;99.90
13970;DHT22;7057;49.984;8.404;2023-04-24T14:49:53;15.20;99.90
13970;DHT22;7057;49.984;8.404;2023-04-24T14:52:20;15.10;99.90
13970;DHT22;7057;49.984;8.404;2023-04-24T14:54:47;15.00;99.90
13970;DHT22;7057;49.984;8.404;2023-04-24T14:57:16;14.80;99.90
13970;DHT22;7057;49.984;8.404;2023-04-24T14:59:43;14.70;99.90
13970;DHT22;7057;49.984;8.404;2023-04-24T15:02:10;14.70;99.90
13970;DHT22;7057;49.984;8.404;2023-04-24T15:04:37;14.80;99.90
13970;DHT22;7057;49.984;8.404;2023-04-24T15:07:04;14.70;99.90
13970;DHT22;7057;49.984;8.404;2023-04-24T15:09:31;14.90;99.90
13970;DHT22;7057;49.984;8.404;2023-04-24T15:11:58;15.00;99.90
13970;DHT22;7057;49.984;8.404;2023-04-24T15:14:28;15.20;99.90
13970;DHT22;7057;49.984;8.404;2023-04-24T15:16:56;15.30;99.90
13970;DHT22;7057;49.984;8.404;2023-04-24T15:19:23;15.30;99.90
13970;DHT22;7057;49.984;8.404;2023-04-24T15:21:50;15.30;99.90
13970;DHT22;7057;49.984;8.404;2023-04-24T15:24:17;15.10;99.90
13970;DHT22;7057;49.984;8.404;2023-04-24T15:26:44;15.10;99.90
13970;DHT22;7057;49.984;8.404;2023-04-24T15:29:11;15.10;99.90
13970;DHT22;7057;49.984;8.404;2023-04-24T15:31:40;15.00;99.90
13970;DHT22;7057;49.984;8.404;2023-04-24T15:34:07;15.00;99.90
13970;DHT22;7057;49.984;8.404;2023-04-24T15:36:34;14.90;99.90
13970;DHT22;7057;49.984;8.404;2023-04-24T15:39:02;14.80;99.90
13970;DHT22;7057;49.984;8.404;2023-04-24T15:41:29;14.70;99.90
13970;DHT22;7057;49.984;8.404;2023-04-24T15:43:57;14.60;99.90
13970;DHT22;7057;49.984;8.404;2023-04-24T15:46:24;14.60;99.90
13970;DHT22;7057;49.984;8.404;2023-04-24T15:48:53;14.60;99.90
13970;DHT22;7057;49.984;8.404;2023-04-24T15:51:20;14.60;99.90
13970;DHT22;7057;49.984;8.404;2023-04-24T15:53:47;14.70;99.90
13970;DHT22;7057;49.984;8.404;2023-04-24T15:56:14;14.80;99.90